Time;durP1;ratioP1;P1;durP2;ratioP2;P2;SDS_P1;SDS_P2;PMS_P1;PMS_P2;Temp;Humidity;BMP_temperature;BMP_pressure;BME280_temperature;BME280_humidity;BME280_pressure;Samples;Min_cycle;Max_cycle;Signal;HPM_P1;HPM_P2
2021/03/11 00:02:21;;;;;;;8.67;6.37;;;2.40;90.90;;;;;;4935708;28;20229;-86
2021/03/11 00:04:47;;;;;;;11.43;7.40;;;2.40;90.90;;;;;;4940357;28;20312;-85
2021/03/11 00:07:15;;;;;;;10.27;6.63;;;2.50;91.00;;;;;;4931479;28;20229;-87
2021/03/11 00:09:41;;;;;;;9.10;6.80;;;2.60;90.60;;;;;;4931153;28;20484;-85
2021/03/11 00:12:11;;;;;;;8.70;6.87;;;2.60;90.60;;;;;;4953882;28;20232;-85
2021/03/11 00:14:38;;;;;;;9.13;6.17;;;2.60;90.70;;;;;;4952829;28;20284;-88
2021/03/11 00:17:04;;;;;;;9.07;6.70;;;2.60;90.30;;;;;;4950653;28;20228;-85
2021/03/11 00:19:31;;;;;;;9.20;6.80;;;2.60;90.30;;;;;;4940198;28;20203;-86
2021/03/11 00:21:57;;;;;;;9.67;6.50;;;2.50;90.60;;;;;;4950715;28;20283;-87
2021/03/11 00:24:24;;;;;;;8.23;6.13;;;2.50;90.80;;;;;;4940683;28;20218;-86
2021/03/11 00:26:50;;;;;;;8.43;6.27;;;2.50;90.80;;;;;;4931196;28;20239;-87
2021/03/11 00:29:18;;;;;;;8.67;6.30;;;2.60;90.70;;;;;;4952911;28;20210;-87
2021/03/11 00:31:45;;;;;;;8.07;5.70;;;2.60;90.30;;;;;;4953688;28;20585;-86
2021/03/11 00:34:11;;;;;;;8.13;6.30;;;2.60;90.30;;;;;;4955434;28;20214;-86
2021/03/11 00:36:39;;;;;;;8.43;6.40;;;2.70;90.40;;;;;;4961619;28;20252;-85
2021/03/11 00:39:07;;;;;;;8.83;6.37;;;2.60;90.40;;;;;;4935457;28;20209;-85
2021/03/11 00:41:34;;;;;;;7.70;5.70;;;2.60;90.10;;;;;;4946180;28;20738;-86
2021/03/11 00:44:00;;;;;;;7.67;6.23;;;2.60;90.00;;;;;;4967594;28;20291;-86
2021/03/11 00:46:27;;;;;;;7.33;5.90;;;2.60;90.00;;;;;;4943999;28;20234;-88
2021/03/11 00:48:54;;;;;;;7.53;5.70;;;2.60;89.10;;;;;;4949535;28;20202;-88
2021/03/11 00:51:20;;;;;;;8.70;5.87;;;2.60;89.00;;;;;;4943352;28;20225;-87
2021/03/11 00:53:48;;;;;;;8.53;5.70;;;2.60;89.30;;;;;;4942866;28;20207;-87
2021/03/11 00:56:14;;;;;;;7.60;5.77;;;2.60;89.50;;;;;;4961832;28;20699;-87
2021/03/11 00:58:40;;;;;;;7.23;5.37;;;2.60;89.70;;;;;;4951480;28;20217;-87
2021/03/11 01:01:07;;;;;;;7.87;5.93;;;2.60;90.40;;;;;;4937358;28;20719;-89
2021/03/11 01:03:34;;;;;;;7.57;6.10;;;2.60;90.20;;;;;;4942394;28;20574;-88
2021/03/11 01:06:00;;;;;;;7.33;5.60;;;2.60;89.00;;;;;;4941532;28;20688;-87
2021/03/11 01:08:27;;;;;;;8.50;5.60;;;2.60;89.90;;;;;;4941157;28;20250;-87
2021/03/11 01:10:53;;;;;;;7.80;5.47;;;2.70;88.90;;;;;;4982166;28;20213;-89
2021/03/11 01:13:20;;;;;;;8.67;5.83;;;2.70;87.60;;;;;;4975954;28;20762;-88
2021/03/11 01:15:47;;;;;;;7.87;5.97;;;2.80;87.60;;;;;;4969778;28;20676;-88
2021/03/11 01:18:14;;;;;;;6.93;5.30;;;2.80;87.70;;;;;;4963339;28;20715;-87
2021/03/11 01:20:42;;;;;;;6.73;5.50;;;2.80;87.70;;;;;;4939502;28;20209;-88
2021/03/11 01:23:08;;;;;;;7.23;5.17;;;2.60;88.90;;;;;;4961573;28;20233;-90
2021/03/11 01:25:35;;;;;;;7.67;5.80;;;2.60;90.00;;;;;;4930335;28;20606;-88
2021/03/11 01:28:11;;;;;;;8.23;5.50;;;2.60;89.80;;;;;;4950648;28;20218;-90
2021/03/11 01:30:38;;;;;;;7.93;4.90;;;2.50;88.70;;;;;;4960982;28;20197;-90
2021/03/11 01:33:08;;;;;;;6.90;4.97;;;2.60;89.10;;;;;;4965259;28;20598;-88
2021/03/11 01:35:37;;;;;;;6.60;4.93;;;2.60;87.90;;;;;;4962392;28;20245;-89
2021/03/11 01:38:07;;;;;;;6.07;5.10;;;2.70;88.60;;;;;;4933016;28;20245;-88
2021/03/11 01:40:34;;;;;;;7.63;5.00;;;2.70;87.50;;;;;;4959111;28;20202;-88
2021/03/11 01:43:05;;;;;;;6.97;4.93;;;2.70;87.50;;;;;;4935461;28;20275;-89
2021/03/11 01:45:31;;;;;;;8.10;5.00;;;2.70;87.50;;;;;;4956148;28;20209;-87
2021/03/11 01:48:00;;;;;;;6.83;5.17;;;2.90;87.70;;;;;;4944608;28;20691;-87
2021/03/11 01:50:26;;;;;;;5.97;4.60;;;2.90;87.70;;;;;;4957149;28;20238;-88
2021/03/11 01:52:53;;;;;;;6.73;5.37;;;2.70;87.60;;;;;;4941094;28;20710;-87
2021/03/11 01:55:30;;;;;;;7.13;5.40;;;2.80;87.60;;;;;;4939453;28;20201;-88
2021/03/11 01:57:58;;;;;;;8.70;4.93;;;2.70;87.50;;;;;;4936566;28;21540;-88
2021/03/11 02:00:25;;;;;;;7.63;5.20;;;2.80;87.60;;;;;;4969523;28;20204;-89
2021/03/11 02:02:54;;;;;;;6.53;4.87;;;2.90;87.70;;;;;;4935038;28;20317;-91
2021/03/11 02:05:22;;;;;;;5.90;4.73;;;3.10;87.80;;;;;;4940630;28;20249;-88
2021/03/11 02:07:48;;;;;;;6.40;4.23;;;3.10;86.80;;;;;;4942942;28;20290;-91
2021/03/11 02:10:20;;;;;;;6.27;5.07;;;3.10;86.30;;;;;;4948158;28;20218;-88
2021/03/11 02:13:10;;;;;;;5.93;4.90;;;3.10;86.40;;;;;;4955352;28;20599;-86
2021/03/11 02:15:44;;;;;;;8.37;4.73;;;3.10;86.70;;;;;;4942360;28;20293;-90
2021/03/11 02:18:24;;;;;;;6.80;5.40;;;3.10;87.70;;;;;;4941534;28;20236;-89
2021/03/11 02:20:58;;;;;;;6.03;4.83;;;2.90;86.50;;;;;;4954127;28;20216;-89
2021/03/11 02:24:02;;;;;;;5.83;4.77;;;2.90;87.70;;;;;;4964722;28;20290;-88
2021/03/11 02:27:07;;;;;;;7.07;5.10;;;3.00;87.20;;;;;;4956420;28;20229;-88
2021/03/11 02:29:38;;;;;;;6.30;4.63;;;3.10;87.80;;;;;;4930363;28;20200;-89
2021/03/11 02:32:14;;;;;;;6.33;4.63;;;3.30;85.50;;;;;;4940937;28;20222;-86
2021/03/11 02:34:45;;;;;;;6.10;4.57;;;3.40;84.80;;;;;;4956829;28;20217;-88
2021/03/11 02:37:14;;;;;;;6.60;4.60;;;3.40;83.50;;;;;;4948891;28;20241;-86
2021/03/11 02:39:44;;;;;;;5.23;4.20;;;3.40;82.90;;;;;;4980190;28;20211;-87
2021/03/11 02:42:12;;;;;;;6.53;4.57;;;3.50;82.90;;;;;;4944930;28;20307;-90
2021/03/11 02:44:42;;;;;;;5.40;4.20;;;3.50;82.90;;;;;;4962163;28;20218;-87
2021/03/11 02:47:11;;;;;;;5.17;4.07;;;3.40;82.90;;;;;;4946912;28;20230;-87
2021/03/11 02:49:39;;;;;;;5.50;4.20;;;3.30;84.40;;;;;;4941075;28;20213;-90
2021/03/11 02:52:15;;;;;;;6.40;3.90;;;3.20;83.30;;;;;;4947543;28;20226;-86
2021/03/11 02:54:43;;;;;;;5.37;4.10;;;3.30;84.50;;;;;;4943421;28;20216;-88
2021/03/11 02:57:15;;;;;;;6.73;4.07;;;3.30;83.60;;;;;;4934916;28;20321;-90
2021/03/11 02:59:46;;;;;;;4.40;3.80;;;3.50;83.70;;;;;;4943925;28;20215;-87
2021/03/11 03:02:14;;;;;;;4.53;3.77;;;3.50;82.40;;;;;;4945264;28;20320;-87
2021/03/11 03:04:44;;;;;;;4.83;3.17;;;3.40;82.10;;;;;;4966967;28;20226;-88
2021/03/11 03:07:14;;;;;;;5.50;3.80;;;3.30;79.40;;;;;;4951205;28;20567;-87
2021/03/11 03:09:42;;;;;;;4.27;3.30;;;3.40;81.10;;;;;;4946300;28;20198;-88
2021/03/11 03:12:09;;;;;;;4.03;3.63;;;3.50;81.20;;;;;;4954093;28;20275;-88
2021/03/11 03:14:37;;;;;;;4.53;3.27;;;3.40;80.80;;;;;;4941285;28;20202;-87
2021/03/11 03:17:06;;;;;;;4.90;3.70;;;3.50;79.70;;;;;;4942498;28;20581;-86
2021/03/11 03:19:33;;;;;;;4.40;3.40;;;3.50;79.50;;;;;;4941152;28;20673;-88
2021/03/11 03:22:00;;;;;;;3.90;3.27;;;3.70;77.80;;;;;;4943977;28;20236;-88
2021/03/11 03:24:26;;;;;;;4.77;3.20;;;3.80;77.90;;;;;;4957379;28;20228;-88
2021/03/11 03:26:53;;;;;;;3.97;3.27;;;3.80;78.20;;;;;;4940456;28;20676;-87
2021/03/11 03:29:19;;;;;;;6.30;3.90;;;4.00;78.30;;;;;;4947156;28;20198;-88
2021/03/11 03:31:46;;;;;;;6.83;5.07;;;4.00;77.50;;;;;;4948840;28;20233;-89
2021/03/11 03:34:14;;;;;;;4.23;3.50;;;4.10;77.60;;;;;;4944879;28;20329;-88
2021/03/11 03:36:40;;;;;;;3.63;3.00;;;4.10;77.90;;;;;;4985148;28;20712;-87
2021/03/11 03:39:07;;;;;;;4.80;3.40;;;4.00;75.60;;;;;;4962950;28;20202;-90
2021/03/11 03:41:37;;;;;;;4.07;3.40;;;4.10;75.60;;;;;;4946350;28;20581;-88
2021/03/11 03:44:05;;;;;;;4.43;2.77;;;4.10;76.80;;;;;;4947942;28;20337;-90
2021/03/11 03:46:33;;;;;;;5.20;3.03;;;4.30;69.00;;;;;;4950222;28;20249;-87
2021/03/11 03:49:00;;;;;;;3.93;3.10;;;4.60;64.90;;;;;;4944924;28;20272;-88
2021/03/11 03:51:29;;;;;;;3.13;2.70;;;4.90;60.60;;;;;;4928365;28;20587;-87
2021/03/11 03:53:59;;;;;;;2.67;2.43;;;5.00;59.40;;;;;;4932011;28;20292;-91
2021/03/11 03:56:31;;;;;;;3.93;2.77;;;5.20;58.10;;;;;;4979836;28;20222;-88
2021/03/11 03:59:02;;;;;;;3.83;3.10;;;5.40;55.90;;;;;;4926491;28;20689;-90
2021/03/11 04:01:34;;;;;;;4.03;3.20;;;5.40;56.10;;;;;;4957023;28;20719;-87
2021/03/11 04:04:02;;;;;;;3.40;2.67;;;5.40;57.40;;;;;;4973360;28;20300;-89
2021/03/11 04:06:30;;;;;;;3.33;2.73;;;5.40;57.30;;;;;;4951125;28;20226;-89
2021/03/11 04:08:58;;;;;;;3.43;2.50;;;5.40;58.60;;;;;;4934991;28;20205;-90
2021/03/11 04:11:24;;;;;;;3.30;2.43;;;5.50;58.10;;;;;;4963961;28;20221;-90
2021/03/11 04:13:52;;;;;;;3.87;2.50;;;5.40;59.40;;;;;;4979481;28;20210;-90
2021/03/11 04:16:19;;;;;;;3.83;2.93;;;5.40;58.70;;;;;;4964003;28;20593;-90
2021/03/11 04:18:46;;;;;;;3.20;2.40;;;5.40;57.90;;;;;;4956510;28;20212;-90
2021/03/11 04:21:13;;;;;;;4.27;2.87;;;5.50;58.70;;;;;;4947057;28;20226;-90
2021/03/11 04:23:41;;;;;;;5.20;2.60;;;5.60;60.00;;;;;;4939534;28;20284;-88
2021/03/11 04:26:14;;;;;;;3.63;2.60;;;5.60;62.60;;;;;;4971248;28;20238;-90
2021/03/11 04:28:41;;;;;;;3.27;2.47;;;5.40;62.20;;;;;;4941620;28;20214;-89
2021/03/11 04:31:08;;;;;;;5.07;2.70;;;5.40;65.00;;;;;;4938131;28;20696;-88
2021/03/11 04:33:36;;;;;;;4.03;2.70;;;5.40;65.20;;;;;;4944477;28;20195;-89
2021/03/11 04:36:04;;;;;;;4.80;2.57;;;5.40;66.40;;;;;;4948566;28;20237;-89
2021/03/11 04:38:31;;;;;;;3.10;2.57;;;5.40;68.00;;;;;;4936374;28;20202;-89
2021/03/11 04:40:59;;;;;;;2.63;2.40;;;5.40;66.40;;;;;;4947803;28;20201;-89
2021/03/11 04:43:26;;;;;;;2.97;2.27;;;5.50;66.50;;;;;;4990286;28;20692;-88
2021/03/11 04:45:53;;;;;;;3.37;2.70;;;5.50;66.30;;;;;;4946318;28;20198;-89
2021/03/11 04:48:21;;;;;;;4.57;2.33;;;5.50;66.10;;;;;;4970233;28;20206;-89
2021/03/11 04:50:48;;;;;;;4.17;2.30;;;5.50;68.20;;;;;;4966389;28;20617;-87
2021/03/11 04:53:17;;;;;;;4.43;2.47;;;5.50;70.30;;;;;;4938381;28;20260;-89
2021/03/11 04:55:43;;;;;;;4.53;2.50;;;5.50;68.70;;;;;;4959256;28;20230;-89
2021/03/11 04:58:13;;;;;;;3.13;2.37;;;5.60;70.40;;;;;;4973113;28;20299;-88
2021/03/11 05:00:40;;;;;;;3.53;2.50;;;5.60;64.70;;;;;;4954114;28;20543;-89
2021/03/11 05:03:09;;;;;;;4.50;2.57;;;5.60;67.80;;;;;;4945971;28;20232;-88
2021/03/11 05:05:39;;;;;;;3.87;2.40;;;5.60;69.50;;;;;;4954303;28;20253;-90
2021/03/11 05:08:06;;;;;;;2.40;2.00;;;5.60;68.20;;;;;;4968095;28;20222;-88
2021/03/11 05:10:35;;;;;;;3.67;2.00;;;5.60;61.50;;;;;;4981392;28;20215;-88
2021/03/11 05:13:02;;;;;;;2.63;2.00;;;5.70;60.30;;;;;;4966222;28;20230;-89
2021/03/11 05:15:30;;;;;;;6.20;2.20;;;5.70;63.50;;;;;;4948698;28;20654;-90
2021/03/11 05:17:57;;;;;;;3.73;1.70;;;5.70;62.90;;;;;;4942326;28;20223;-90
2021/03/11 05:20:25;;;;;;;6.20;1.90;;;5.70;61.60;;;;;;4947529;28;20206;-89
2021/03/11 05:22:51;;;;;;;5.20;2.30;;;5.70;61.20;;;;;;4957133;28;20221;-89
2021/03/11 05:25:18;;;;;;;3.30;1.97;;;5.80;61.60;;;;;;4962053;28;20642;-89
2021/03/11 05:27:45;;;;;;;6.50;2.37;;;5.80;60.70;;;;;;4956474;28;20234;-90
2021/03/11 05:30:17;;;;;;;3.13;1.90;;;5.90;62.60;;;;;;4947166;28;20202;-89
2021/03/11 05:32:44;;;;;;;6.73;1.80;;;5.80;62.00;;;;;;4957944;28;20304;-90
2021/03/11 05:35:11;;;;;;;4.07;1.90;;;5.80;63.70;;;;;;4990576;28;20943;-90
2021/03/11 05:37:38;;;;;;;4.37;1.80;;;5.90;61.10;;;;;;4953906;28;20727;-88
2021/03/11 05:40:08;;;;;;;2.43;2.03;;;5.90;60.90;;;;;;4936874;28;20715;-88
2021/03/11 05:42:35;;;;;;;5.93;1.90;;;5.90;63.00;;;;;;4969178;28;20690;-88
2021/03/11 05:45:05;;;;;;;6.30;1.90;;;6.00;61.40;;;;;;4946206;28;20222;-90
2021/03/11 05:47:32;;;;;;;4.70;1.70;;;5.90;60.00;;;;;;4931382;28;20677;-92
2021/03/11 05:50:00;;;;;;;5.97;1.70;;;6.00;63.50;;;;;;4979655;28;20208;-89
2021/03/11 05:52:29;;;;;;;6.57;1.80;;;6.00;59.00;;;;;;4962687;28;20218;-89
2021/03/11 05:54:59;;;;;;;5.30;2.00;;;6.00;56.20;;;;;;4945000;28;20232;-90
2021/03/11 05:57:26;;;;;;;12.87;2.33;;;6.00;60.50;;;;;;4977612;28;20227;-89
2021/03/11 05:59:55;;;;;;;4.83;2.00;;;6.10;62.30;;;;;;4981897;28;20581;-88
2021/03/11 06:02:24;;;;;;;3.97;2.07;;;6.10;62.00;;;;;;4935967;28;20606;-88
2021/03/11 06:05:33;;;;;;;8.27;2.03;;;6.10;59.00;;;;;;4993893;28;20222;-88
2021/03/11 06:08:01;;;;;;;4.73;1.80;;;6.00;58.70;;;;;;4956277;28;20313;-90
2021/03/11 06:10:30;;;;;;;7.63;1.93;;;6.10;62.70;;;;;;5003253;28;20559;-89
2021/03/11 06:12:57;;;;;;;14.77;4.43;;;6.20;60.70;;;;;;4967265;28;20253;-89
2021/03/11 06:15:28;;;;;;;7.77;2.70;;;6.10;61.20;;;;;;4949124;28;20195;-91
2021/03/11 06:17:56;;;;;;;4.60;1.90;;;6.20;60.90;;;;;;4953962;28;20291;-91
2021/03/11 06:20:22;;;;;;;8.27;2.30;;;6.20;58.80;;;;;;4946043;28;20238;-90
2021/03/11 06:22:49;;;;;;;4.70;1.70;;;6.30;60.00;;;;;;4961937;28;20276;-93
2021/03/11 06:25:17;;;;;;;4.97;2.00;;;6.30;59.60;;;;;;4953008;28;20209;-91
2021/03/11 06:27:45;;;;;;;3.20;1.97;;;6.40;60.10;;;;;;4969738;28;20314;-91
2021/03/11 06:30:30;;;;;;;6.83;1.93;;;6.40;61.10;;;;;;4943215;28;20281;-92
2021/03/11 06:32:57;;;;;;;5.80;1.90;;;6.40;60.60;;;;;;4959823;28;20280;-92
2021/03/11 06:35:23;;;;;;;4.83;2.00;;;6.50;59.80;;;;;;4940472;28;20198;-91
2021/03/11 06:37:50;;;;;;;5.07;2.33;;;6.30;61.00;;;;;;4959930;28;20317;-93
2021/03/11 06:40:19;;;;;;;6.17;2.87;;;6.40;61.40;;;;;;4959534;28;20199;-92
2021/03/11 06:42:46;;;;;;;6.50;2.47;;;6.40;62.60;;;;;;4947782;28;20230;-92
2021/03/11 06:45:20;;;;;;;6.03;1.80;;;6.50;61.60;;;;;;4947867;28;20283;-92
2021/03/11 06:47:47;;;;;;;5.83;2.07;;;6.40;59.00;;;;;;4948561;28;20226;-91
2021/03/11 06:50:13;;;;;;;5.90;2.10;;;6.40;59.60;;;;;;4937486;28;20202;-92
2021/03/11 06:52:40;;;;;;;8.27;2.00;;;6.40;63.50;;;;;;4962933;28;20233;-91
2021/03/11 06:55:10;;;;;;;5.50;1.80;;;6.50;63.50;;;;;;4951782;28;20209;-92
2021/03/11 06:57:40;;;;;;;7.13;2.00;;;6.50;65.50;;;;;;4941788;28;20720;-92
2021/03/11 07:00:16;;;;;;;7.90;2.50;;;6.30;66.30;;;;;;4934702;28;20204;-92
2021/03/11 07:02:54;;;;;;;4.33;2.00;;;6.30;68.00;;;;;;4952426;28;20228;-91
2021/03/11 07:05:22;;;;;;;4.13;1.87;;;6.40;71.20;;;;;;4940048;28;20313;-91
2021/03/11 07:07:49;;;;;;;4.37;2.63;;;6.40;71.20;;;;;;4933663;28;20580;-92
2021/03/11 07:10:26;;;;;;;4.47;2.03;;;6.40;71.30;;;;;;4943088;28;20205;-92
2021/03/11 07:12:55;;;;;;;5.53;2.20;;;6.40;73.80;;;;;;4965186;28;20311;-92
2021/03/11 07:15:37;;;;;;;4.53;2.13;;;6.50;75.10;;;;;;4965819;28;20218;-93
2021/03/11 07:21:46;;;;;;;4.83;2.07;;;6.80;75.80;;;;;;4935811;28;20633;-89
2021/03/11 07:26:57;;;;;;;3.73;2.20;;;7.20;75.00;;;;;;5101018;23;20276;-89
2021/03/11 07:30:16;;;;;;;4.33;2.03;;;7.40;72.40;;;;;;5034254;28;20190;-92
2021/03/11 07:39:59;;;;;;;4.13;2.17;;;7.80;63.50;;;;;;5038329;28;20234;-89
2021/03/11 09:10:41;;;;;;;1.25;1.15;;;10.40;47.20;;;;;;5623848;23;20284;-88
2021/03/11 09:13:22;;;;;;;4.50;1.73;;;10.50;47.20;;;;;;4999892;28;20240;-89
2021/03/11 09:15:57;;;;;;;9.40;5.63;;;10.50;47.20;;;;;;5005973;28;20222;-89
2021/03/11 09:18:23;;;;;;;1.83;1.50;;;10.50;47.30;;;;;;4984936;28;20212;-90
2021/03/11 09:20:53;;;;;;;5.30;3.42;;;10.50;47.30;;;;;;4980458;28;20236;-89
2021/03/11 09:23:20;;;;;;;3.40;1.40;;;10.50;47.30;;;;;;5063884;28;20213;-89
2021/03/11 09:25:47;;;;;;;3.50;1.50;;;10.50;47.30;;;;;;5003777;28;20285;-90
2021/03/11 09:28:14;;;;;;;1.67;1.33;;;10.60;47.40;;;;;;4987673;28;20259;-89
2021/03/11 09:30:43;;;;;;;3.85;1.15;;;10.60;47.40;;;;;;4986445;28;20227;-89
2021/03/11 09:33:10;;;;;;;2.17;1.58;;;10.60;47.40;;;;;;4990727;28;20205;-89
2021/03/11 09:35:46;;;;;;;2.58;1.52;;;10.70;47.50;;;;;;5054455;28;20297;-89
2021/03/11 09:38:28;;;;;;;4.22;1.30;;;10.70;47.50;;;;;;5037774;28;20281;-89
2021/03/11 09:41:11;;;;;;;1.52;1.38;;;10.70;47.50;;;;;;4990330;28;20629;-91
2021/03/11 09:44:03;;;;;;;1.83;1.10;;;10.60;47.40;;;;;;4989476;28;20625;-90
2021/03/11 09:46:43;;;;;;;3.38;1.10;;;10.70;47.50;;;;;;4980848;28;20236;-90
2021/03/11 09:50:02;;;;;;;1.67;1.35;;;10.70;47.50;;;;;;4975564;28;20212;-89
2021/03/11 10:33:44;;;;;;;4.72;1.08;;;12.90;45.10;;;;;;5633793;23;20302;-91
2021/03/11 10:36:16;;;;;;;3.22;0.90;;;12.90;46.40;;;;;;4972922;28;20311;-88
2021/03/11 10:42:42;;;;;;;1.70;0.90;;;13.10;45.00;;;;;;4967056;28;20702;-91
2021/03/11 10:45:47;;;;;;;2.10;0.90;;;13.40;43.60;;;;;;4961030;29;20216;-90
2021/03/11 11:02:06;;;;;;;1.42;1.05;;;14.30;42.40;;;;;;5022992;28;20182;-90
2021/03/11 14:40:15;;;;;;;6.22;3.00;;;16.00;41.90;;;;;;6148198;22;20191;-91
2021/03/11 15:41:04;;;;;;;2.97;1.30;;;15.50;45.80;;;;;;5453840;22;20304;-88
2021/03/11 15:50:58;;;;;;;1.90;1.30;;;15.20;47.30;;;;;;4970956;29;20185;-92
2021/03/11 15:53:49;;;;;;;2.58;1.23;;;15.20;46.90;;;;;;4969871;28;20285;-92
2021/03/11 15:56:40;;;;;;;1.77;1.13;;;15.10;47.30;;;;;;4968543;28;20217;-89
2021/03/11 16:02:22;;;;;;;2.40;1.40;;;15.20;47.70;;;;;;5667001;22;20229;-91
2021/03/11 16:04:58;;;;;;;2.75;1.10;;;15.20;48.30;;;;;;5061942;28;20341;-89
2021/03/11 16:07:25;;;;;;;4.10;2.17;;;15.00;48.60;;;;;;5058890;28;20222;-91
2021/03/11 16:09:53;;;;;;;1.85;1.20;;;15.10;48.90;;;;;;5059545;28;20205;-91
2021/03/11 16:12:25;;;;;;;3.08;1.20;;;15.00;48.10;;;;;;5058888;28;20234;-90
2021/03/11 16:15:12;;;;;;;2.40;2.20;;;15.20;48.20;;;;;;5063213;28;20568;-89
2021/03/11 16:17:45;;;;;;;2.95;1.02;;;15.10;48.70;;;;;;5059755;28;20260;-90
2021/03/11 16:20:13;;;;;;;2.42;1.13;;;15.10;49.00;;;;;;5060101;28;20603;-89
2021/03/11 16:22:44;;;;;;;1.20;1.10;;;15.00;49.00;;;;;;5047659;28;20276;-89
2021/03/11 16:25:32;;;;;;;3.30;1.17;;;14.80;49.50;;;;;;5045153;28;20218;-88
2021/03/11 16:28:01;;;;;;;4.22;1.10;;;14.80;49.40;;;;;;5055227;28;20225;-89
2021/03/11 16:30:50;;;;;;;1.20;1.00;;;14.80;49.10;;;;;;5062423;28;20241;-89
2021/03/11 16:33:35;;;;;;;4.53;2.65;;;14.80;49.10;;;;;;5060642;28;20271;-88
2021/03/11 16:36:02;;;;;;;2.17;1.45;;;14.70;49.10;;;;;;5050167;28;20209;-88
2021/03/11 16:38:34;;;;;;;1.70;1.00;;;14.70;48.80;;;;;;5063521;28;20278;-89
2021/03/11 16:41:46;;;;;;;2.92;1.42;;;14.70;49.10;;;;;;5063111;28;20212;-88
2021/03/11 16:44:15;;;;;;;5.25;1.20;;;14.70;48.20;;;;;;5060597;28;20239;-88
2021/03/11 16:46:45;;;;;;;3.35;1.23;;;14.70;49.00;;;;;;5033554;28;20650;-89
2021/03/11 16:49:19;;;;;;;4.63;1.27;;;14.60;49.10;;;;;;5065039;28;20213;-88
2021/03/11 17:02:12;;;;;;;2.42;1.40;;;14.60;48.70;;;;;;5000399;28;20200;-91
2021/03/11 17:08:01;;;;;;;2.15;1.00;;;14.20;50.60;;;;;;5046942;28;20224;-89
2021/03/11 17:10:30;;;;;;;2.05;0.90;;;14.00;54.00;;;;;;5066717;28;20636;-88
2021/03/11 17:12:57;;;;;;;3.22;1.00;;;13.90;56.40;;;;;;5057475;28;20229;-89
2021/03/11 17:15:58;;;;;;;1.23;1.10;;;13.70;58.10;;;;;;5051697;28;20213;-87
2021/03/11 17:18:28;;;;;;;1.48;1.38;;;13.50;61.30;;;;;;5043813;28;20209;-87
2021/03/11 17:20:56;;;;;;;1.77;1.10;;;13.30;63.50;;;;;;5048688;28;20206;-87
2021/03/11 17:23:23;;;;;;;1.27;1.17;;;13.30;63.00;;;;;;5047624;28;20464;-90
2021/03/11 17:25:52;;;;;;;1.65;1.20;;;13.30;63.80;;;;;;5039281;28;20256;-88
2021/03/11 17:28:19;;;;;;;1.88;1.08;;;13.20;65.20;;;;;;5045163;28;20254;-86
2021/03/11 17:30:47;;;;;;;3.65;1.00;;;13.20;65.10;;;;;;5058386;28;20605;-89
2021/03/11 17:33:17;;;;;;;1.92;1.50;;;13.10;64.60;;;;;;5055581;28;20728;-88
2021/03/11 17:35:45;;;;;;;1.52;1.30;;;13.10;64.00;;;;;;5051679;28;20210;-88
2021/03/11 17:38:12;;;;;;;1.15;1.02;;;13.10;64.70;;;;;;5046987;28;20305;-87
2021/03/11 17:40:41;;;;;;;1.55;1.30;;;13.10;62.90;;;;;;5054643;28;20202;-88
2021/03/11 17:43:08;;;;;;;1.77;1.05;;;13.10;64.40;;;;;;5052888;28;20218;-86
2021/03/11 17:45:36;;;;;;;1.45;1.30;;;13.10;64.10;;;;;;5044551;28;20383;-88
2021/03/11 17:48:03;;;;;;;1.88;0.90;;;13.10;64.40;;;;;;5043901;28;20305;-88
2021/03/11 17:51:01;;;;;;;1.73;0.93;;;13.10;63.30;;;;;;5057715;28;20216;-87
2021/03/11 17:56:52;;;;;;;2.20;1.02;;;13.00;63.50;;;;;;5065402;28;20228;-87
2021/03/11 17:59:19;;;;;;;0.98;0.98;;;13.00;66.20;;;;;;5062660;28;20209;-88
2021/03/11 18:01:58;;;;;;;1.38;1.20;;;12.90;67.30;;;;;;5046364;28;20332;-90
2021/03/11 18:04:25;;;;;;;1.15;1.00;;;12.80;70.90;;;;;;5065569;28;20210;-88
2021/03/11 18:06:53;;;;;;;1.30;1.20;;;12.60;72.50;;;;;;5057977;28;20229;-87
2021/03/11 18:09:21;;;;;;;2.45;1.30;;;12.50;75.50;;;;;;5031782;28;20209;-90
2021/03/11 18:11:51;;;;;;;1.55;1.25;;;12.60;75.50;;;;;;5058690;28;20215;-87
2021/03/11 18:14:18;;;;;;;2.08;1.45;;;12.50;75.50;;;;;;5062074;28;20305;-87
2021/03/11 18:16:45;;;;;;;1.48;1.20;;;12.50;75.50;;;;;;5055040;28;20697;-88
2021/03/11 18:19:13;;;;;;;1.75;1.65;;;12.40;75.50;;;;;;5061929;28;20611;-86
2021/03/11 18:21:41;;;;;;;2.15;1.52;;;12.40;77.40;;;;;;5050440;28;20253;-87
2021/03/11 18:24:11;;;;;;;2.13;1.52;;;12.30;80.00;;;;;;5057131;28;20242;-87
2021/03/11 18:26:40;;;;;;;1.80;1.42;;;12.10;83.40;;;;;;5044110;28;20226;-87
2021/03/11 18:29:10;;;;;;;2.03;1.73;;;11.80;89.30;;;;;;5035838;28;20198;-88
2021/03/11 18:31:37;;;;;;;1.98;1.00;;;11.60;91.10;;;;;;5062804;28;20236;-87
2021/03/11 18:34:37;;;;;;;1.27;1.00;;;11.40;92.40;;;;;;5064049;28;20648;-87
2021/03/11 18:37:19;;;;;;;2.75;1.00;;;10.90;92.30;;;;;;5054911;28;20226;-88
2021/03/11 18:39:48;;;;;;;1.85;1.15;;;10.50;93.70;;;;;;5055972;28;20206;-88
2021/03/11 18:42:15;;;;;;;1.30;1.20;;;10.30;94.80;;;;;;5041733;28;20230;-88
2021/03/11 18:44:43;;;;;;;1.10;1.02;;;10.10;95.50;;;;;;5049915;28;20253;-87
2021/03/11 18:47:10;;;;;;;2.47;0.98;;;10.10;95.80;;;;;;5051410;28;20281;-85
2021/03/11 18:49:38;;;;;;;2.90;1.00;;;10.00;95.70;;;;;;5057568;28;20198;-86
2021/03/11 18:52:09;;;;;;;1.67;1.13;;;10.00;95.70;;;;;;5053582;28;20210;-88
2021/03/11 18:58:11;;;;;;;1.63;0.98;;;9.90;96.50;;;;;;5054932;28;20232;-88
2021/03/11 19:00:40;;;;;;;2.25;1.50;;;9.80;97.00;;;;;;5044782;28;20221;-86
2021/03/11 19:03:08;;;;;;;1.20;1.10;;;9.70;97.40;;;;;;5045519;28;20230;-87
2021/03/11 19:05:39;;;;;;;1.40;1.00;;;9.80;97.30;;;;;;5051196;28;20217;-88
2021/03/11 19:08:07;;;;;;;2.03;1.17;;;9.80;97.40;;;;;;5032960;28;20294;-88
2021/03/11 19:10:35;;;;;;;1.45;1.00;;;9.70;97.50;;;;;;5051748;28;20194;-88
2021/03/11 19:13:03;;;;;;;2.22;1.27;;;9.70;97.40;;;;;;5057244;28;20208;-88
2021/03/11 19:15:30;;;;;;;3.78;1.50;;;9.70;97.40;;;;;;5055954;28;20197;-88
2021/03/11 19:17:58;;;;;;;2.60;1.60;;;9.60;97.70;;;;;;5034319;28;20218;-90
2021/03/11 19:20:30;;;;;;;3.00;1.50;;;9.50;98.10;;;;;;5049258;28;20613;-87
2021/03/11 19:23:06;;;;;;;2.13;1.38;;;9.50;98.50;;;;;;5040555;28;20594;-87
2021/03/11 19:25:34;;;;;;;1.45;1.35;;;9.50;98.60;;;;;;5045947;28;20304;-87
2021/03/11 19:28:02;;;;;;;2.42;1.92;;;9.50;98.60;;;;;;5048123;28;20225;-91
2021/03/11 19:30:32;;;;;;;2.10;1.90;;;9.40;98.60;;;;;;5037479;28;20233;-88
2021/03/11 19:33:00;;;;;;;1.33;1.23;;;9.40;98.60;;;;;;5042657;28;20225;-87
2021/03/11 19:35:30;;;;;;;2.40;1.40;;;9.40;98.40;;;;;;5053518;28;20240;-87
2021/03/11 19:37:57;;;;;;;2.67;1.58;;;9.40;99.10;;;;;;5047444;28;20226;-89
2021/03/11 19:40:27;;;;;;;1.55;1.45;;;9.40;99.00;;;;;;5050453;28;20206;-87
2021/03/11 19:42:54;;;;;;;1.30;1.13;;;9.30;99.00;;;;;;5045418;28;20230;-89
2021/03/11 19:45:22;;;;;;;1.13;1.05;;;9.20;96.00;;;;;;5048467;28;20259;-88
2021/03/11 19:47:49;;;;;;;1.97;1.37;;;9.10;96.40;;;;;;5040033;28;20218;-85
2021/03/11 19:50:19;;;;;;;3.27;1.20;;;9.00;96.70;;;;;;5036536;28;20201;-91
2021/03/11 19:52:46;;;;;;;2.00;1.20;;;9.00;97.30;;;;;;5040169;28;20230;-86
2021/03/11 19:55:15;;;;;;;1.83;1.50;;;8.80;98.30;;;;;;5043815;28;20819;-88
2021/03/11 19:58:24;;;;;;;1.67;0.90;;;8.70;99.40;;;;;;5053183;28;20621;-86
2021/03/11 20:00:55;;;;;;;1.17;0.87;;;8.70;99.20;;;;;;5048141;28;20212;-86
2021/03/11 20:03:47;;;;;;;1.73;1.10;;;8.70;99.50;;;;;;5048518;28;20217;-86
2021/03/11 20:06:16;;;;;;;1.47;1.17;;;8.70;99.90;;;;;;5047897;28;20226;-92
2021/03/11 20:08:45;;;;;;;2.10;1.10;;;8.80;99.90;;;;;;5034303;28;20217;-89
2021/03/11 20:11:12;;;;;;;3.67;1.60;;;8.70;99.90;;;;;;5050594;28;20285;-89
2021/03/11 20:13:59;;;;;;;1.40;1.10;;;8.80;99.90;;;;;;5021419;28;20217;-88
2021/03/11 20:16:29;;;;;;;2.60;1.23;;;8.70;99.90;;;;;;5033429;28;20294;-88
2021/03/11 20:18:57;;;;;;;0.70;0.70;;;8.60;99.90;;;;;;5032081;28;20202;-89
2021/03/11 20:21:25;;;;;;;2.30;1.00;;;8.60;99.90;;;;;;5047212;28;20230;-91
2021/03/11 20:23:59;;;;;;;1.37;1.20;;;8.70;99.90;;;;;;5036824;28;20304;-89
2021/03/11 20:26:25;;;;;;;1.20;1.03;;;8.60;99.90;;;;;;5038725;28;20716;-91
2021/03/11 20:28:52;;;;;;;1.00;1.00;;;8.60;99.90;;;;;;5050090;28;20204;-87
2021/03/11 20:31:19;;;;;;;1.20;1.10;;;8.60;99.90;;;;;;5031846;28;20237;-87
2021/03/11 20:33:46;;;;;;;0.90;0.90;;;8.60;98.90;;;;;;5035103;28;20208;-87
2021/03/11 20:36:17;;;;;;;1.87;1.77;;;8.60;98.50;;;;;;5023700;28;20460;-87
2021/03/11 20:38:51;;;;;;;1.30;1.20;;;8.60;98.60;;;;;;5027957;28;20905;-88
2021/03/11 20:41:21;;;;;;;1.30;1.20;;;8.70;98.90;;;;;;5032829;28;20260;-89
2021/03/11 20:43:48;;;;;;;1.23;0.90;;;8.70;98.10;;;;;;5034080;28;20208;-90
2021/03/11 20:46:17;;;;;;;1.50;1.40;;;8.70;98.20;;;;;;5034935;28;20260;-86
2021/03/11 20:48:46;;;;;;;0.80;0.80;;;8.70;97.00;;;;;;5035420;28;20202;-85
2021/03/11 20:51:15;;;;;;;1.40;1.27;;;8.80;96.60;;;;;;5039324;28;20236;-85
2021/03/11 20:53:41;;;;;;;1.20;1.10;;;8.80;96.20;;;;;;5043712;28;20244;-84
2021/03/11 20:56:09;;;;;;;1.67;1.20;;;8.80;95.00;;;;;;5041420;28;20273;-85
2021/03/11 20:58:45;;;;;;;1.00;0.90;;;8.80;94.10;;;;;;5049803;28;20199;-84